Stormwatcher's Retreat Logo




                  Temp     Hi    Low   Out    Dew  Wind  Wind   Wind    Hi    Hi   Wind   Heat    THW   THSW                Rain  Solar   Solar Hi Solar   UV    UV    Hi     Heat    Cool    In     In    In     In     In   In Air          Wind  Wind    ISS   Arc.
  Date    Time     Out   Temp   Temp   Hum    Pt. Speed   Dir    Run Speed   Dir  Chill  Index  Index  Index   Bar    Rain  Rate   Rad.  Energy    Rad.  Index  Dose   UV     D-D     D-D    Temp   Hum    Dew   Heat    EMC Density     ET   Samp   Tx   Recept  Int.
------------------------------------------------------------------------------------------------------------------------------------------------------------------------------------------------------------------------------------------------------------------------
 8/13/18 12:10a   55.7   56.0   55.7    92   53.4   1.0   ENE   0.17   3.0   ENE   55.7   55.8   55.8   53.3  30.067  0.00  0.00     0     0.00      0     0.0  0.00   0.0   0.065   0.000   71.3    61   57.2   71.0  11.20  .0739    0.000   211    5    100.0   10 
 8/13/18 12:20a   55.8   55.8   55.7    93   53.8   2.0   ENE   0.33   4.0    NE   55.8   56.0   56.0   53.5  30.065  0.00  0.00     0     0.00      0     0.0  0.00   0.0   0.064   0.000   71.4    61   57.2   71.1  11.19  .0739    0.000   213    5    100.0   10 
 8/13/18 12:30a   55.8   55.8   55.8    93   53.8   1.0   ENE   0.17   3.0    NE   55.8   56.0   56.0   53.5  30.066  0.00  0.00     0     0.00      0     0.0  0.00   0.0   0.064   0.000   71.4    61   57.2   71.1  11.19  .0739    0.000   213    5    100.0   10 
 8/13/18 12:40a   55.6   55.8   55.6    93   53.6   2.0    NE   0.33   5.0    NE   55.6   55.8   55.8   53.3  30.063  0.00  0.00     0     0.00      0     0.0  0.00   0.0   0.065   0.000   71.4    61   57.2   71.1  11.19  .0739    0.000   212    5    100.0   10 
 8/13/18 12:50a   55.5   55.7   55.5    93   53.5   2.0   ENE   0.33   5.0    NE   55.5   55.7   55.7   53.2  30.061  0.00  0.00     0     0.00      0     0.0  0.00   0.0   0.066   0.000   71.5    60   56.9   71.2  11.02  .0739    0.000   213    5    100.0   10 
 8/13/18  1:00a   55.5   55.5   55.5    93   53.5   2.0   ENE   0.33   5.0   ENE   55.5   55.7   55.7   53.2  30.057  0.00  0.00     0     0.00      0     0.0  0.00   0.0   0.066   0.000   71.5    60   56.9   71.2  11.02  .0739    0.000   210    5    100.0   10 
 8/13/18  1:10a   55.3   55.5   55.3    93   53.3   1.0   ENE   0.17   2.0   ENE   55.3   55.5   55.5   53.0  30.057  0.00  0.00     0     0.00      0     0.0  0.00   0.0   0.067   0.000   71.5    60   56.9   71.2  11.02  .0739    0.000   212    5    100.0   10 
 8/13/18  1:20a   54.9   55.3   54.9    93   52.9   0.0   ENE   0.00   1.0   ENE   54.9   55.1   55.1   52.5  30.053  0.00  0.00     0     0.00      0     0.0  0.00   0.0   0.070   0.000   71.5    60   56.9   71.2  11.02  .0739    0.000   211    5    100.0   10 
 8/13/18  1:30a   54.7   55.0   54.7    93   52.7   0.0   ENE   0.00   1.0   ENE   54.7   54.9   54.9   52.3  30.052  0.00  0.00     0     0.00      0     0.0  0.00   0.0   0.072   0.000   71.5    60   56.9   71.2  11.02  .0739    0.000   211    5    100.0   10 
 8/13/18  1:40a   54.4   54.7   54.4    93   52.4   0.0   ENE   0.00   1.0   ENE   54.4   54.6   54.6   52.0  30.054  0.00  0.00     0     0.00      0     0.0  0.00   0.0   0.074   0.000   71.5    60   56.9   71.2  11.02  .0739    0.000   210    5    100.0   10 
 8/13/18  1:50a   54.4   54.4   54.2    93   52.4   0.0   ENE   0.00   2.0   ENE   54.4   54.6   54.6   52.0  30.051  0.00  0.00     0     0.00      0     0.0  0.00   0.0   0.074   0.000   71.4    60   56.8   71.1  11.02  .0739    0.000   213    5    100.0   10 
 8/13/18  2:00a   54.2   54.4   54.2    93   52.2   1.0   ENE   0.17   2.0   ENE   54.2   54.4   54.4   51.8  30.054  0.00  0.00     0     0.00      0     0.0  0.00   0.0   0.075   0.000   71.4    60   56.8   71.1  11.02  .0739    0.000   211    5    100.0   10 
 8/13/18  2:10a   54.1   54.1   54.0    93   52.1   0.0   ENE   0.00   2.0   ENE   54.1   54.3   54.3   51.7  30.050  0.00  0.00     0     0.00      0     0.0  0.00   0.0   0.076   0.000   71.4    60   56.8   71.1  11.02  .0739    0.000   212    5    100.0   10 
 8/13/18  2:20a   53.8   54.1   53.8    93   51.8   0.0   ENE   0.00   1.0   ENE   53.8   54.0   54.0   51.4  30.048  0.00  0.00     0     0.00      0     0.0  0.00   0.0   0.078   0.000   71.4    59   56.3   71.0  10.89  .0739    0.000   214    5    100.0   10 
 8/13/18  2:30a   53.6   53.8   53.6    93   51.6   0.0   ---   0.00   0.0   ---   53.6   53.8   53.8   51.2  30.048  0.00  0.00     0     0.00      0     0.0  0.00   0.0   0.079   0.000   71.3    59   56.2   70.8  10.90  .0739    0.000   211    5    100.0   10 
 8/13/18  2:40a   53.7   53.7   53.4    94   52.0   0.0   ENE   0.00   2.0   ENE   53.7   53.9   53.9   51.3  30.046  0.00  0.00     0     0.00      0     0.0  0.00   0.0   0.078   0.000   71.3    59   56.2   70.8  10.90  .0739    0.000   210    5    100.0   10 
 8/13/18  2:50a   53.5   53.7   53.5    93   51.5   0.0   ENE   0.00   1.0   ENE   53.5   53.7   53.7   51.1  30.044  0.00  0.00     0     0.00      0     0.0  0.00   0.0   0.080   0.000   71.3    59   56.2   70.8  10.90  .0739    0.000   213    5    100.0   10 
 8/13/18  3:00a   53.2   53.5   53.2    93   51.2   1.0   ENE   0.17   2.0   ENE   53.2   53.4   53.4   50.8  30.043  0.00  0.00     0     0.00      0     0.0  0.00   0.0   0.082   0.000   71.3    59   56.2   70.8  10.90  .0739    0.000   212    5    100.0   10 
 8/13/18  3:10a   53.3   53.3   53.2    94   51.6   1.0   ENE   0.17   2.0   ENE   53.3   53.5   53.5   50.9  30.043  0.00  0.00     0     0.00      0     0.0  0.00   0.0   0.081   0.000   71.2    59   56.1   70.7  10.90  .0739    0.000   213    5    100.0   10 
 8/13/18  3:20a   53.1   53.3   53.1    94   51.4   1.0   ENE   0.17   3.0   ENE   53.1   53.4   53.4   50.8  30.043  0.00  0.00     0     0.00      0     0.0  0.00   0.0   0.083   0.000   71.2    59   56.1   70.7  10.90  .0739    0.000   211    5    100.0   10 
 8/13/18  3:30a   52.9   53.1   52.9    94   51.2   1.0   ENE   0.17   3.0   ENE   52.9   53.2   53.2   50.6  30.045  0.00  0.00     0     0.00      0     0.0  0.00   0.0   0.084   0.000   71.2    59   56.1   70.7  10.90  .0739    0.000   210    5    100.0   10 
 8/13/18  3:40a   53.0   53.0   52.9    94   51.3   1.0   ENE   0.17   2.0   ENE   53.0   53.3   53.3   50.7  30.043  0.00  0.00     0     0.00      0     0.0  0.00   0.0   0.083   0.000   71.1    59   56.0   70.5  10.91  .0739    0.000   211    5    100.0   10 
 8/13/18  3:50a   53.6   53.6   52.9    95   52.2   0.0   ENE   0.00   1.0   ENE   53.6   53.8   53.8   51.2  30.041  0.00  0.00     0     0.00      0     0.0  0.00   0.0   0.079   0.000   71.0    58   55.5   70.3  10.71  .0740    0.000   213    5    100.0   10 
 8/13/18  4:00a   53.6   53.7   53.6    94   51.9   0.0   ENE   0.00   2.0   ENE   53.6   53.8   53.8   51.2  30.042  0.00  0.00     0     0.00      0     0.0  0.00   0.0   0.079   0.000   71.0    58   55.5   70.3  10.71  .0740    0.000   211    5    100.0   10 
 8/13/18  4:10a   53.5   53.6   53.5    94   51.8   1.0   ENE   0.17   2.0   ENE   53.5   53.7   53.7   51.1  30.039  0.00  0.00     0     0.00      0     0.0  0.00   0.0   0.080   0.000   70.9    58   55.4   70.2  10.71  .0740    0.000   211    5    100.0   10 
 8/13/18  4:20a   53.5   53.6   53.4    94   51.8   1.0   ENE   0.17   2.0   ENE   53.5   53.7   53.7   51.1  30.034  0.00  0.00     0     0.00      0     0.0  0.00   0.0   0.080   0.000   70.9    58   55.4   70.2  10.71  .0740    0.000   212    5    100.0   10 
 8/13/18  4:30a   54.2   54.2   53.6    95   52.8   1.0   ENE   0.17   2.0   ENE   54.2   54.4   54.4   51.8  30.033  0.00  0.00     0     0.00      0     0.0  0.00   0.0   0.075   0.000   70.9    58   55.4   70.2  10.71  .0740    0.000   212    5    100.0   10 
 8/13/18  4:40a   53.4   54.2   53.4    94   51.7   1.0    NE   0.17   3.0   ENE   53.4   53.6   53.6   51.0  30.034  0.00  0.00     0     0.00      0     0.0  0.00   0.0   0.081   0.000   70.8    58   55.3   70.0  10.72  .0740    0.000   211    5    100.0   10 
 8/13/18  4:50a   52.7   53.4   52.7    94   51.0   1.0    NE   0.17   4.0    NE   52.7   53.0   53.0   50.4  30.033  0.00  0.00     0     0.00      0     0.0  0.00   0.0   0.085   0.000   70.8    58   55.3   70.0  10.72  .0740    0.000   210    5    100.0   10 
 8/13/18  5:00a   52.1   52.7   52.1    94   50.4   1.0     E   0.17   3.0    NE   52.1   52.4   52.4   49.7  30.034  0.00  0.00     0     0.00      0     0.0  0.00   0.0   0.090   0.000   70.7    58   55.2   69.9  10.72  .0740    0.000   211    5    100.0   10 
 8/13/18  5:10a   52.2   52.3   52.1    94   50.5   0.0     E   0.00   2.0     E   52.2   52.5   52.5   49.8  30.033  0.00  0.00     0     0.00      0     0.0  0.00   0.0   0.089   0.000   70.7    58   55.2   69.9  10.72  .0740    0.000   213    5    100.0   10 
 8/13/18  5:20a   52.0   52.2   51.9    94   50.3   1.0   ENE   0.17   2.0     E   52.0   52.3   52.3   49.6  30.033  0.00  0.00     0     0.00      0     0.0  0.00   0.0   0.090   0.000   70.7    58   55.2   69.9  10.72  .0740    0.000   210    5    100.0   10 
 8/13/18  5:30a   52.0   52.0   51.9    95   50.6   1.0   ENE   0.17   2.0   ENE   52.0   52.3   52.3   49.6  30.034  0.00  0.00     0     0.00      0     0.0  0.00   0.0   0.090   0.000   70.6    58   55.1   69.8  10.73  .0740    0.000   212    5    100.0   10 
 8/13/18  5:40a   51.7   52.0   51.7    94   50.0   1.0   ENE   0.17   2.0   ENE   51.7   52.0   52.0   49.3  30.033  0.00  0.00     0     0.00      0     0.0  0.00   0.0   0.092   0.000   70.5    58   55.0   69.7  10.73  .0740    0.000   210    5    100.0   10 
 8/13/18  5:50a   51.7   51.7   51.6    94   50.0   1.0   ENE   0.17   2.0   ENE   51.7   52.0   52.0   49.3  30.034  0.00  0.00     0     0.00      0     0.0  0.00   0.0   0.092   0.000   70.5    58   55.0   69.7  10.73  .0740    0.000   213    5    100.0   10 
 8/13/18  6:00a   51.4   51.7   51.4    95   50.0   1.0   ENE   0.17   2.0   ENE   51.4   51.8   51.8   49.1  30.034  0.00  0.00     0     0.00      0     0.0  0.00   0.0   0.094   0.000   70.5    58   55.0   69.7  10.73  .0740    0.000   211    5    100.0   10 
 8/13/18  6:10a   51.9   51.9   51.4    95   50.5   1.0   ENE   0.17   2.0   ENE   51.9   52.2   52.2   49.5  30.032  0.00  0.00     0     0.00      0     0.0  0.00   0.0   0.091   0.000   70.4    57   54.4   69.4  10.53  .0741    0.000   212    5    100.0   10 
 8/13/18  6:20a   52.0   52.0   51.9    95   50.6   0.0   ENE   0.00   1.0   ENE   52.0   52.3   52.3   49.6  30.030  0.00  0.00     0     0.00      0     0.0  0.00   0.0   0.090   0.000   70.3    57   54.3   69.3  10.54  .0741    0.000   212    5    100.0   10 
 8/13/18  6:30a   52.2   52.2   52.0    95   50.8   0.0   ENE   0.00   1.0   ENE   52.2   52.5   52.5   50.0  30.032  0.00  0.00     6     0.09      9     0.0  0.00   0.0   0.089   0.000   70.3    57   54.3   69.3  10.54  .0741    0.000   210    5    100.0   10 
 8/13/18  6:40a   51.7   52.2   51.7    94   50.0   1.0   ENE   0.17   2.0   ENE   51.7   52.0   52.0   49.6  30.033  0.00  0.00    14     0.20     18     0.0  0.00   0.0   0.092   0.000   70.2    57   54.2   69.2  10.54  .0741    0.000   213    5    100.0   10 
 8/13/18  6:50a   51.5   51.7   51.5    95   50.1   0.0   ENE   0.00   1.0   ENE   51.5   51.8   51.8   49.6  30.035  0.00  0.00    23     0.33     28     0.0  0.00   0.0   0.094   0.000   70.2    57   54.2   69.2  10.54  .0741    0.000   212    5    100.0   10 
 8/13/18  7:00a   51.4   51.5   51.4    95   50.0   1.0   ENE   0.17   2.0   ENE   51.4   51.8   51.8   51.5  30.033  0.00  0.00    34     0.49     40     0.0  0.00   0.0   0.094   0.000   70.1    57   54.2   69.0  10.55  .0741    0.000   211    5    100.0   10 
 8/13/18  7:10a   51.9   51.9   51.4    95   50.5   0.0   ENE   0.00   1.0   ENE   51.9   52.2   52.2   52.4  30.035  0.00  0.00    46     0.66     51     0.0  0.00   0.0   0.091   0.000   70.1    57   54.2   69.0  10.55  .0741    0.000   214    5    100.0   10 
 8/13/18  7:20a   52.5   52.5   51.8    96   51.4   1.0   ENE   0.17   3.0   NNE   52.5   52.8   52.8   53.5  30.035  0.00  0.00    59     0.85     65     0.0  0.00   0.0   0.087   0.000   70.1    57   54.2   69.0  10.55  .0741    0.000   213    5    100.0   10 
 8/13/18  7:30a   52.1   52.5   52.1    95   50.7   1.0   NNE   0.17   2.0   NNE   52.1   52.4   52.4   53.7  30.035  0.00  0.00    74     1.06     81     0.0  0.00   0.0   0.090   0.000   70.1    57   54.2   69.0  10.55  .0741    0.000   210    5    100.0   10 
 8/13/18  7:40a   52.1   52.2   52.1    95   50.7   1.0    NE   0.17   3.0    NE   52.1   52.4   52.4   54.1  30.035  0.00  0.00    88     1.26     95     0.0  0.00   0.0   0.090   0.000   70.1    57   54.2   69.0  10.55  .0741    0.000   213    5    100.0   10 
 8/13/18  7:50a   52.5   52.5   52.1    95   51.1   0.0   ENE   0.00   2.0   ENE   52.5   52.8   52.8   55.1  30.033  0.00  0.00   104     1.49    114     0.0  0.00   0.0   0.087   0.000   70.2    57   54.2   69.2  10.54  .0741    0.000   213    5    100.0   10 
 8/13/18  8:00a   53.2   53.2   52.5    96   52.1   0.0   ENE   0.00   1.0   ENE   53.2   53.5   53.5   56.5  30.033  0.00  0.00   127     1.82    134     0.0  0.00   0.0   0.082   0.000   70.2    57   54.2   69.2  10.54  .0741    0.002   212    5    100.0   10 
 8/13/18  8:10a   53.8   53.8   53.2    95   52.4   0.0   ENE   0.00   1.0   ENE   53.8   54.0   54.0   57.5  30.032  0.00  0.00   144     2.06    151     0.0  0.00   0.0   0.078   0.000   70.3    57   54.3   69.3  10.54  .0741    0.000   209    5    100.0   10 
 8/13/18  8:20a   54.0   54.1   53.8    95   52.6   1.0   NNE   0.17   3.0   NNE   54.0   54.2   54.2   58.0  30.032  0.00  0.00   159     2.28    165     0.0  0.00   0.0   0.076   0.000   70.3    57   54.3   69.3  10.54  .0741    0.000   213    5    100.0   10 
 8/13/18  8:30a   54.5   54.5   54.0    96   53.4   0.0    NE   0.00   2.0    NE   54.5   54.7   54.7   58.9  30.032  0.00  0.00   175     2.51    185     0.0  0.00   0.0   0.073   0.000   70.4    57   54.4   69.4  10.53  .0741    0.000   213    5    100.0   10 
 8/13/18  8:40a   55.6   55.6   54.6    96   54.5   1.0   ENE   0.17   3.0   ENE   55.6   55.8   55.8   60.4  30.030  0.00  0.00   194     2.78    204     0.0  0.00   0.0   0.065   0.000   70.4    57   54.4   69.4  10.53  .0741    0.000   212    5    100.0   10 
 8/13/18  8:50a   56.1   56.1   55.6    96   55.0   2.0   ENE   0.33   5.0   ENE   56.1   56.3   56.3   61.5  30.032  0.00  0.00   219     3.14    232     0.0  0.00   0.0   0.062   0.000   70.5    57   54.5   69.5  10.53  .0741    0.000   212    5    100.0   10 
 8/13/18  9:00a   56.5   56.5   56.2    95   55.1   3.0    NE   0.50   5.0    NE   56.5   56.7   56.7   62.6  30.032  0.00  0.00   252     3.61    267     0.0  0.00   0.0   0.059   0.000   70.5    57   54.5   69.5  10.53  .0741    0.004   211    5    100.0   10 
 8/13/18  9:10a   56.2   56.5   56.2    95   54.8   4.0    NE   0.67   6.0   ENE   56.0   56.4   56.2   62.7  30.032  0.00  0.00   285     4.09    302     0.0  0.00   0.0   0.061   0.000   70.6    57   54.6   69.7  10.53  .0740    0.000   210    5    100.0   10 
 8/13/18  9:20a   56.1   56.2   56.0    95   54.7   4.0   NNE   0.67   7.0   NNE   55.9   56.3   56.1   63.3  30.031  0.00  0.00   321     4.60    338     0.0  0.00   0.0   0.062   0.000   70.5    57   54.5   69.5  10.53  .0741    0.000   210    5    100.0   10 
 8/13/18  9:30a   56.6   56.6   56.1    95   55.2   4.0    NE   0.67   7.0   ENE   56.5   56.8   56.7   64.6  30.031  0.00  0.00   360     5.16    381     0.0  0.00   0.0   0.058   0.000   70.5    57   54.5   69.5  10.53  .0741    0.000   211    5    100.0   10 
 8/13/18  9:40a   56.8   56.8   56.5    95   55.4   4.0    NE   0.67   9.0    NE   56.8   57.0   57.0   65.6  30.031  0.00  0.00   407     5.83    424     0.0  0.00   0.0   0.057   0.000   70.4    57   54.4   69.4  10.53  .0741    0.000   213    5    100.0   10 
 8/13/18  9:50a   56.8   56.9   56.8    94   55.1   5.0    NE   0.83   9.0   NNE   56.2   57.0   56.4   65.2  30.027  0.00  0.00   429     6.15    446     0.0  0.00   0.0   0.057   0.000   70.3    57   54.3   69.3  10.54  .0741    0.000   213    5    100.0   10 
 8/13/18 10:00a   56.9   56.9   56.8    94   55.2   6.0    NE   1.00   9.0    NE   55.9   57.1   56.1   65.1  30.028  0.00  0.00   449     6.44    464     0.0  0.00   0.0   0.056   0.000   70.3    58   54.8   69.4  10.74  .0741    0.008   212    5    100.0   10 
 8/13/18 10:10a   56.8   56.9   56.8    94   55.1   6.0    NE   1.00  10.0   NNE   55.8   57.0   56.0   64.9  30.028  0.00  0.00   453     6.49    466     0.0  0.00   0.0   0.057   0.000   70.0    58   54.5   69.0  10.75  .0741    0.000   212    5    100.0   10 
 8/13/18 10:20a   56.9   56.9   56.6    94   55.2   6.0    NE   1.00  10.0   NNE   55.9   57.1   56.1   65.2  30.028  0.00  0.00   475     6.81    508     0.0  0.00   0.0   0.056   0.000   69.9    58   54.4   68.9  10.75  .0741    0.000   213    5    100.0   10 
 8/13/18 10:30a   57.3   57.3   56.8    94   55.6   6.0    NE   1.00  11.0    NE   56.4   57.5   56.6   65.9  30.024  0.00  0.00   500     7.17    543     0.0  0.00   0.0   0.053   0.000   69.9    58   54.4   68.9  10.75  .0741    0.000   212    5    100.0   10 
 8/13/18 10:40a   57.3   57.3   57.2    94   55.6   7.0    NE   1.17  10.0    NE   56.0   57.5   56.2   65.9  30.025  0.00  0.00   550     7.88    566     0.0  0.00   0.0   0.053   0.000   69.8    58   54.4   68.8  10.75  .0741    0.000   213    5    100.0   10 
 8/13/18 10:50a   57.3   57.3   57.2    94   55.6   7.0    NE   1.17  10.0    NE   56.0   57.5   56.2   65.7  30.027  0.00  0.00   540     7.74    573     0.0  0.00   0.0   0.053   0.000   69.7    58   54.3   68.8  10.75  .0742    0.000   212    5    100.0   10 
 8/13/18 11:00a   57.4   57.5   57.2    94   55.7   7.0    NE   1.17  11.0    NE   56.1   57.6   56.3   66.1  30.026  0.00  0.00   575     8.24    587     0.0  0.00   0.0   0.053   0.000   69.7    58   54.3   68.8  10.75  .0742    0.010   212    5    100.0   10 
 8/13/18 11:10a   57.8   57.8   57.4    93   55.8   8.0    NE   1.33  12.0    NE   55.9   58.0   56.1   65.6  30.026  0.00  0.00   589     8.44    599     0.0  0.00   0.0   0.050   0.000   69.6    58   54.2   68.7  10.75  .0742    0.000   209    5    100.0   10 
 8/13/18 11:20a   57.8   58.0   57.8    93   55.8   8.0    NE   1.33  12.0    NE   55.9   58.0   56.1   65.8  30.021  0.00  0.00   607     8.70    615     0.0  0.00   0.0   0.050   0.000   69.5    59   54.5   68.7  10.95  .0742    0.000   212    5    100.0   10 
 8/13/18 11:30a   58.3   58.3   57.7    93   56.3   6.0    NE   1.00  10.0   NNE   57.6   58.5   57.8   68.3  30.018  0.00  0.00   622     8.92    629     0.0  0.00   0.0   0.047   0.000   69.4    59   54.4   68.6  10.95  .0742    0.000   211    5    100.0   10 
 8/13/18 11:40a   58.9   58.9   58.3    93   56.9   5.0    NE   0.83   9.0    NE   58.7   59.2   59.0   69.5  30.019  0.00  0.00   626     8.97    633     0.0  0.00   0.0   0.042   0.000   69.4    59   54.4   68.6  10.95  .0742    0.000   214    5    100.0   10 
 8/13/18 11:50a   59.5   59.5   58.9    92   57.2   6.0    NE   1.00   9.0    NE   59.0   59.8   59.3   69.8  30.014  0.00  0.00   627     8.99    649     0.0  0.00   0.0   0.038   0.000   69.2    59   54.3   68.5  10.95  .0742    0.000   212    5    100.0   10 
 8/13/18 12:00p   59.6   59.6   59.5    92   57.3   6.0    NE   1.00  10.0   NNE   59.1   59.9   59.4   69.6  30.011  0.00  0.00   600     8.60    635     0.0  0.00   0.0   0.038   0.000   69.1    59   54.2   68.4  10.95  .0742    0.013   211    5    100.0   10 
 8/13/18 12:10p   59.0   59.6   58.6    92   56.7   5.0     N   0.83   9.0     N   58.8   59.3   59.1   69.7  30.010  0.00  0.00   644     9.23    668     0.0  0.00   0.0   0.042   0.000   69.2    60   54.7   68.6  11.05  .0742    0.000   213    5    100.0   10 
 8/13/18 12:20p   59.8   59.8   59.0    92   57.5   7.0    NE   1.17  11.0    NE   59.0   60.1   59.3   70.0  30.006  0.00  0.00   670     9.60    677     0.0  0.00   0.0   0.036   0.000   69.2    60   54.7   68.6  11.05  .0742    0.000   213    5    100.0   10 
 8/13/18 12:30p   60.1   60.1   59.8    92   57.8   8.0    NE   1.33  12.0   ENE   58.6   60.4   58.9   69.1  30.002  0.00  0.00   673     9.65    675     0.0  0.00   0.0   0.034   0.000   69.1    60   54.6   68.5  11.05  .0742    0.000   212    5    100.0   10 
 8/13/18 12:40p   60.4   60.4   59.9    92   58.1   6.0     N   1.00  10.0   ENE   60.1   60.8   60.5   71.4  29.999  0.00  0.00   671     9.62    673     0.0  0.00   0.0   0.032   0.000   69.0    60   54.5   68.4  11.05  .0742    0.000   212    5    100.0   10 
 8/13/18 12:50p   61.1   61.2   60.4    90   58.1   7.0    NE   1.17  10.0   ENE   60.5   61.5   60.9   71.7  29.998  0.00  0.00   680     9.75    684     0.0  0.00   0.0   0.027   0.000   68.8    61   54.8   68.4  11.25  .0742    0.000   212    5    100.0   10 
 8/13/18  1:00p   60.7   61.1   60.6    90   57.7   8.0    NE   1.33  11.0    NE   59.3   61.1   59.7   69.9  29.995  0.00  0.00   677     9.70    682     0.0  0.00   0.0   0.030   0.000   68.8    61   54.8   68.4  11.25  .0742    0.014   211    5    100.0   10 
 8/13/18  1:10p   61.4   61.4   60.7    89   58.1   8.0    NE   1.33  13.0    NE   60.2   61.8   60.6   70.9  30.000  0.00  0.00   676     9.69    680     0.0  0.00   0.0   0.025   0.000   68.8    61   54.8   68.4  11.25  .0742    0.000   212    5    100.0   10 
 8/13/18  1:20p   61.3   61.4   60.9    89   58.0   8.0    NE   1.33  12.0    NE   60.1   61.7   60.5   70.7  30.002  0.00  0.00   668     9.58    670     0.0  0.00   0.0   0.026   0.000   68.8    61   54.8   68.4  11.25  .0742    0.000   211    5    100.0   10 
 8/13/18  1:30p   61.5   61.5   61.2    88   57.9   8.0    NE   1.33  12.0    NE   60.3   61.9   60.7   70.9  30.001  0.00  0.00   667     9.56    671     0.0  0.00   0.0   0.024   0.000   69.0    61   55.0   68.5  11.25  .0742    0.000   209    5    100.0   10 
 8/13/18  1:40p   62.2   62.2   61.5    88   58.6   8.0   NNE   1.33  12.0   NNE   61.1   62.7   61.6   71.9  29.999  0.00  0.00   674     9.66    682     0.0  0.00   0.0   0.019   0.000   69.3    60   54.8   68.6  11.05  .0741    0.000   212    5    100.0   10 
 8/13/18  1:50p   62.5   62.5   62.3    87   58.6   8.0   NNE   1.33  13.0   NNE   61.5   63.0   62.0   72.4  29.998  0.00  0.00   686     9.83    694     0.0  0.00   0.0   0.017   0.000   69.2    61   55.2   68.7  11.25  .0741    0.000   213    5    100.0   10 
 8/13/18  2:00p   63.6   63.6   62.6    86   59.3   7.0   ENE   1.17  14.0    NE   63.6   64.2   64.2   74.9  29.997  0.00  0.00   662     9.49    675     0.0  0.00   0.0   0.010   0.000   69.1    62   55.5   68.7  11.37  .0741    0.015   212    5    100.0   10 
 8/13/18  2:10p   63.9   63.9   63.6    86   59.6   8.0    NE   1.33  14.0   NNE   63.1   64.5   63.7   74.0  29.997  0.00  0.00   668     9.58    671     0.0  0.00   0.0   0.008   0.000   69.0    62   55.4   68.6  11.37  .0741    0.000   211    5    100.0   10 
 8/13/18  2:20p   64.2   64.2   63.9    86   59.9   9.0    NE   1.50  15.0    NE   62.6   64.9   63.3   73.3  29.993  0.00  0.00   673     9.65    680     0.0  0.00   0.0   0.006   0.000   69.1    62   55.5   68.7  11.37  .0741    0.000   212    5    100.0   10 
 8/13/18  2:30p   64.0   64.3   63.9    86   59.7   8.0    NE   1.33  14.0   NNE   63.2   64.6   63.8   74.1  29.990  0.00  0.00   672     9.63    680     0.0  0.00   0.0   0.007   0.000   69.1    63   56.0   68.8  11.57  .0741    0.000   214    5    100.0   10 
 8/13/18  2:40p   64.0   64.1   63.5    86   59.7   8.0   NNE   1.33  14.0   NNE   63.2   64.6   63.8   73.9  29.991  0.00  0.00   647     9.27    661     0.0  0.00   0.0   0.007   0.000   68.9    63   55.8   68.6  11.57  .0741    0.000   211    5    100.0   10 
 8/13/18  2:50p   63.7   64.1   63.7    85   59.1   9.0    NE   1.50  16.0   ENE   62.0   64.3   62.6   72.3  29.988  0.00  0.00   632     9.06    638     0.0  0.00   0.0   0.009   0.000   68.9    64   56.2   68.7  11.67  .0741    0.000   212    5    100.0   10 
 8/13/18  3:00p   63.6   63.7   63.6    86   59.3   9.0    NE   1.50  15.0   NNE   61.9   64.2   62.5   72.1  29.985  0.00  0.00   626     8.97    635     0.0  0.00   0.0   0.010   0.000   68.8    65   56.6   68.8  11.87  .0741    0.015   210    5    100.0   10 
 8/13/18  3:10p   63.8   63.8   63.6    86   59.5   9.0    NE   1.50  15.0   NNE   62.2   64.4   62.8   72.4  29.985  0.00  0.00   621     8.90    624     0.0  0.00   0.0   0.008   0.000   68.7    65   56.5   68.7  11.88  .0741    0.000   213    5    100.0   10 
 8/13/18  3:20p   64.2   64.3   63.8    86   59.9   8.0   ENE   1.33  14.0   NNE   63.4   64.9   64.1   74.0  29.984  0.00  0.00   599     8.59    615     0.0  0.00   0.0   0.006   0.000   68.8    64   56.1   68.7  11.67  .0741    0.000   212    5    100.0   10 
 8/13/18  3:30p   64.5   64.5   64.2    86   60.2   7.0    NE   1.17  14.0    NE   64.5   65.2   65.2   75.3  29.981  0.00  0.00   578     8.29    582     0.0  0.00   0.0   0.003   0.000   69.0    64   56.3   68.8  11.67  .0741    0.000   213    5    100.0   10 
 8/13/18  3:40p   64.4   64.6   64.3    86   60.1   7.0    NE   1.17  12.0   NNE   64.4   65.1   65.1   75.2  29.976  0.00  0.00   570     8.17    575     0.0  0.00   0.0   0.004   0.000   69.2    63   56.1   68.9  11.57  .0740    0.000   211    5    100.0   10 
 8/13/18  3:50p   64.7   64.8   64.4    86   60.4   7.0   ENE   1.17  11.0   ENE   64.7   65.5   65.5   75.5  29.973  0.00  0.00   554     7.94    563     0.0  0.00   0.0   0.002   0.000   69.5    63   56.3   69.1  11.56  .0740    0.000   213    5    100.0   10 
 8/13/18  4:00p   64.0   64.7   64.0    85   59.4   8.0   ENE   1.33  14.0   ENE   63.2   64.6   63.8   73.3  29.970  0.00  0.00   540     7.74    545     0.0  0.00   0.0   0.007   0.000   69.6    63   56.4   69.2  11.56  .0740    0.013   210    5    100.0   10 
 8/13/18  4:10p   64.0   64.1   63.9    86   59.7   8.0    NE   1.33  13.0    NE   63.2   64.6   63.8   73.2  29.968  0.00  0.00   519     7.44    531     0.0  0.00   0.0   0.007   0.000   69.7    63   56.5   69.3  11.56  .0739    0.000   213    5    100.0   10 
 8/13/18  4:20p   63.9   64.0   63.9    86   59.6   8.0   ENE   1.33  15.0   NNE   63.1   64.5   63.7   72.3  29.965  0.00  0.00   456     6.54    506     0.0  0.00   0.0   0.008   0.000   69.9    63   56.7   69.4  11.55  .0739    0.000   210    5    100.0   10 
 8/13/18  4:30p   63.8   64.0   63.8    86   59.5   8.0    NE   1.33  13.0    NE   63.0   64.4   63.6   72.6  29.962  0.00  0.00   471     6.75    475     0.0  0.00   0.0   0.008   0.000   70.0    63   56.8   69.5  11.55  .0739    0.000   212    5    100.0   10 
 8/13/18  4:40p   63.9   63.9   63.5    87   60.0   8.0    NE   1.33  13.0   ENE   63.1   64.6   63.8   72.8  29.960  0.00  0.00   464     6.65    471     0.0  0.00   0.0   0.008   0.000   70.1    63   56.9   69.6  11.55  .0738    0.000   212    5    100.0   10 
 8/13/18  4:50p   64.0   64.0   63.9    86   59.7   8.0    NE   1.33  15.0    NE   63.2   64.6   63.8   72.8  29.958  0.00  0.00   451     6.47    455     0.0  0.00   0.0   0.007   0.000   70.3    63   57.1   69.9  11.54  .0738    0.000   212    5    100.0   10 
 8/13/18  5:00p   64.1   64.2   64.0    86   59.8   8.0   ENE   1.33  12.0   NNE   63.3   64.8   64.0   73.0  29.954  0.00  0.00   438     6.28    446     0.0  0.00   0.0   0.006   0.000   70.4    63   57.2   70.0  11.54  .0738    0.011   211    5    100.0   10 
 8/13/18  5:10p   64.3   64.3   64.1    86   60.0   7.0    NE   1.17  13.0     E   64.3   65.0   65.0   74.2  29.950  0.00  0.00   414     5.93    425     0.0  0.00   0.0   0.005   0.000   70.5    63   57.3   70.1  11.54  .0737    0.000   211    5    100.0   10 
 8/13/18  5:20p   64.1   64.4   64.0    86   59.8   8.0    NE   1.33  14.0    NE   63.3   64.8   64.0   72.3  29.949  0.00  0.00   378     5.42    394     0.0  0.00   0.0   0.006   0.000   70.5    64   57.7   70.2  11.65  .0737    0.000   212    5    100.0   10 
 8/13/18  5:30p   64.3   64.3   64.1    86   60.0   7.0   ENE   1.17  14.0   ENE   64.3   65.0   65.0   73.3  29.951  0.00  0.00   347     4.97    360     0.0  0.00   0.0   0.005   0.000   70.4    64   57.6   70.1  11.65  .0737    0.000   214    5    100.0   10 
 8/13/18  5:40p   64.3   64.4   64.3    86   60.0   8.0   ENE   1.33  14.0   ENE   63.6   65.0   64.3   71.9  29.953  0.00  0.00   319     4.57    332     0.0  0.00   0.0   0.005   0.000   70.4    64   57.6   70.1  11.65  .0738    0.000   211    5    100.0   10 
 8/13/18  5:50p   64.4   64.5   64.3    86   60.1   6.0   ENE   1.00  11.0    NE   64.4   65.1   65.1   72.9  29.954  0.00  0.00   296     4.24    304     0.0  0.00   0.0   0.004   0.000   70.4    64   57.6   70.1  11.65  .0738    0.000   209    5    100.0   10 
 8/13/18  6:00p   64.0   64.4   64.0    86   59.7   7.0    NE   1.17  13.0   ENE   64.0   64.6   64.6   71.8  29.952  0.00  0.00   274     3.93    283     0.0  0.00   0.0   0.007   0.000   70.4    64   57.6   70.1  11.65  .0737    0.008   213    5    100.0   10 
 8/13/18  6:10p   63.7   64.0   63.7    86   59.4   6.0    NE   1.00  11.0    NE   63.7   64.3   64.3   71.4  29.950  0.00  0.00   252     3.61    262     0.0  0.00   0.0   0.009   0.000   70.3    64   57.5   70.0  11.65  .0738    0.000   213    5    100.0   10 
 8/13/18  6:20p   63.5   63.7   63.5    87   59.6   6.0    NE   1.00  11.0   NNE   63.5   64.1   64.1   70.8  29.948  0.00  0.00   231     3.31    241     0.0  0.00   0.0   0.010   0.000   70.3    64   57.5   70.0  11.65  .0738    0.000   212    5    100.0   10 
 8/13/18  6:30p   63.2   63.5   63.2    87   59.3   6.0    NE   1.00  11.0     E   63.2   63.8   63.8   70.1  29.946  0.00  0.00   212     3.04    220     0.0  0.00   0.0   0.012   0.000   70.3    64   57.5   70.0  11.65  .0738    0.000   214    5    100.0   10 
 8/13/18  6:40p   62.9   63.2   62.9    87   59.0   6.0    NE   1.00  11.0   ENE   62.9   63.5   63.5   69.4  29.944  0.00  0.00   194     2.78    202     0.0  0.00   0.0   0.015   0.000   70.3    64   57.5   70.0  11.65  .0737    0.000   211    5    100.0   10 
 8/13/18  6:50p   62.9   62.9   62.8    87   59.0   7.0    NE   1.17  12.0    NE   62.8   63.5   63.4   68.5  29.941  0.00  0.00   172     2.47    183     0.0  0.00   0.0   0.015   0.000   70.2    64   57.4   69.8  11.65  .0738    0.000   213    5    100.0   10 
 8/13/18  7:00p   62.6   62.8   62.6    87   58.7   7.0    NE   1.17  12.0    NE   62.4   63.1   62.9   67.2  29.939  0.00  0.00   148     2.12    162     0.0  0.00   0.0   0.017   0.000   70.1    64   57.4   69.7  11.65  .0738    0.005   212    5    100.0   10 
 8/13/18  7:10p   62.5   62.6   62.5    88   58.9   7.0    NE   1.17  12.0    NE   62.3   63.0   62.8   66.3  29.936  0.00  0.00   122     1.75    132     0.0  0.00   0.0   0.017   0.000   70.0    64   57.3   69.6  11.65  .0738    0.000   212    5    100.0   10 
 8/13/18  7:20p   62.3   62.5   62.3    88   58.7   7.0    NE   1.17  13.0   NNE   62.1   62.8   62.6   65.3  29.938  0.00  0.00    99     1.42    111     0.0  0.00   0.0   0.019   0.000   70.0    64   57.3   69.6  11.65  .0738    0.000   212    5    100.0   10 
 8/13/18  7:30p   62.0   62.3   62.0    88   58.4   6.0    NE   1.00  10.0    NE   62.0   62.4   62.4   64.1  29.938  0.00  0.00    76     1.09     86     0.0  0.00   0.0   0.021   0.000   69.9    64   57.2   69.5  11.65  .0738    0.000   213    5    100.0   10 
 8/13/18  7:40p   61.5   61.9   61.5    89   58.2   7.0    NE   1.17  11.0   ENE   61.1   61.9   61.5   60.3  29.939  0.00  0.00    54     0.77     63     0.0  0.00   0.0   0.024   0.000   69.9    64   57.2   69.5  11.65  .0738    0.000   209    5    100.0   10 
 8/13/18  7:50p   61.3   61.5   61.2    89   58.0   7.0    NE   1.17  11.0   ENE   60.8   61.7   61.2   59.6  29.940  0.00  0.00    37     0.53     44     0.0  0.00   0.0   0.026   0.000   69.8    64   57.1   69.4  11.65  .0738    0.000   213    5    100.0   10 
 8/13/18  8:00p   61.1   61.3   61.1    90   58.1   6.0   ENE   1.00  13.0    NE   60.9   61.5   61.3   59.4  29.941  0.00  0.00    23     0.33     30     0.0  0.00   0.0   0.027   0.000   69.5    64   56.8   69.2  11.66  .0739    0.002   211    5    100.0   10 
 8/13/18  8:10p   61.0   61.1   60.9    90   58.0   5.0   ENE   0.83  10.0     E   61.0   61.4   61.4   59.3  29.945  0.00  0.00    13     0.19     18     0.0  0.00   0.0   0.028   0.000   69.5    64   56.8   69.2  11.66  .0739    0.000   212    5    100.0   10 
 8/13/18  8:20p   60.8   61.0   60.8    90   57.8   4.0   ENE   0.67   9.0    NE   60.8   61.2   61.2   58.9  29.948  0.00  0.00     7     0.10      9     0.0  0.00   0.0   0.029   0.000   69.5    64   56.8   69.2  11.66  .0739    0.000   210    5    100.0   10 
 8/13/18  8:30p   60.7   60.8   60.6    91   58.1   4.0   ENE   0.67  11.0   ENE   60.7   61.1   61.1   58.7  29.945  0.00  0.00     1     0.01      5     0.0  0.00   0.0   0.030   0.000   69.4    65   57.1   69.2  11.86  .0739    0.000   211    5    100.0   10 
 8/13/18  8:40p   60.6   60.7   60.6    91   58.0   4.0   ENE   0.67   9.0     E   60.6   61.0   61.0   58.5  29.945  0.00  0.00     0     0.00      0     0.0  0.00   0.0   0.031   0.000   69.4    65   57.1   69.2  11.86  .0739    0.000   213    5    100.0   10 
 8/13/18  8:50p   60.8   60.8   60.7    91   58.2   4.0   ENE   0.67  11.0   ENE   60.8   61.2   61.2   58.8  29.943  0.00  0.00     0     0.00      0     0.0  0.00   0.0   0.029   0.000   69.4    65   57.1   69.2  11.86  .0739    0.000   213    5    100.0   10 
 8/13/18  9:00p   60.9   60.9   60.8    92   58.6   4.0   ENE   0.67  11.0   ENE   60.9   61.3   61.3   58.9  29.947  0.00  0.00     0     0.00      0     0.0  0.00   0.0   0.028   0.000   69.6    64   56.9   69.3  11.66  .0739    0.000   211    5    100.0   10 
 8/13/18  9:10p   60.9   60.9   60.9    92   58.6   4.0    NE   0.67  11.0   ENE   60.9   61.3   61.3   58.9  29.950  0.00  0.00     0     0.00      0     0.0  0.00   0.0   0.028   0.000   69.8    64   57.1   69.4  11.65  .0739    0.000   210    5    100.0   10 
 8/13/18  9:20p   60.9   60.9   60.8    92   58.6   5.0   ENE   0.83  11.0   ENE   60.9   61.3   61.3   58.9  29.950  0.00  0.00     0     0.00      0     0.0  0.00   0.0   0.028   0.000   70.0    64   57.3   69.6  11.65  .0738    0.000   212    5    100.0   10 
 8/13/18  9:30p   60.8   60.9   60.8    92   58.5   5.0   ENE   0.83  12.0   ENE   60.8   61.2   61.2   58.8  29.951  0.00  0.00     0     0.00      0     0.0  0.00   0.0   0.029   0.000   70.0    64   57.3   69.6  11.65  .0738    0.000   212    5    100.0   10 
 8/13/18  9:40p   60.7   60.8   60.7    92   58.4   6.0   ENE   1.00  11.0   NNE   60.4   61.1   60.8   58.4  29.952  0.00  0.00     0     0.00      0     0.0  0.00   0.0   0.030   0.000   70.1    64   57.4   69.7  11.65  .0738    0.000   212    5    100.0   10 
 8/13/18  9:50p   60.7   60.7   60.7    92   58.4   3.0   ENE   0.50  10.0   ENE   60.7   61.1   61.1   58.7  29.950  0.00  0.00     0     0.00      0     0.0  0.00   0.0   0.030   0.000   70.1    64   57.4   69.7  11.65  .0738    0.000   212    5    100.0   10 
 8/13/18 10:00p   60.6   60.7   60.6    92   58.3   4.0   ENE   0.67  11.0   ENE   60.6   61.0   61.0   58.6  29.946  0.00  0.00     0     0.00      0     0.0  0.00   0.0   0.031   0.000   70.1    64   57.4   69.7  11.65  .0738    0.000   213    5    100.0   10 
 8/13/18 10:10p   60.5   60.6   60.5    92   58.2   2.0   ENE   0.33   6.0   ESE   60.5   60.9   60.9   58.5  29.945  0.00  0.00     0     0.00      0     0.0  0.00   0.0   0.031   0.000   70.1    64   57.4   69.7  11.65  .0738    0.000   209    5    100.0   10 
 8/13/18 10:20p   60.2   60.5   60.2    93   58.2   4.0   ENE   0.67   9.0     E   60.2   60.6   60.6   58.2  29.945  0.00  0.00     0     0.00      0     0.0  0.00   0.0   0.033   0.000   70.0    64   57.3   69.6  11.65  .0738    0.000   212    5    100.0   10 
 8/13/18 10:30p   60.2   60.2   60.1    93   58.2   5.0   ENE   0.83  14.0    NE   60.2   60.6   60.6   58.2  29.945  0.00  0.00     0     0.00      0     0.0  0.00   0.0   0.033   0.000   69.7    64   57.0   69.4  11.66  .0739    0.000   212    5    100.0   10 
 8/13/18 10:40p   60.1   60.2   60.1    93   58.1   4.0   ENE   0.67  12.0   ENE   60.1   60.5   60.5   58.1  29.946  0.00  0.00     0     0.00      0     0.0  0.00   0.0   0.034   0.000   69.5    64   56.8   69.2  11.66  .0739    0.000   212    5    100.0   10 
 8/13/18 10:50p   60.0   60.1   60.0    93   58.0   5.0    NE   0.83  13.0    NE   60.0   60.4   60.4   57.9  29.948  0.00  0.00     0     0.00      0     0.0  0.00   0.0   0.035   0.000   69.5    64   56.8   69.2  11.66  .0739    0.000   212    5    100.0   10 
 8/13/18 11:00p   60.0   60.1   60.0    93   58.0   5.0   ENE   0.83  12.0   ENE   60.0   60.4   60.4   57.9  29.948  0.00  0.00     0     0.00      0     0.0  0.00   0.0   0.035   0.000   69.1    65   56.8   69.0  11.87  .0740    0.000   213    5    100.0   10 
 8/13/18 11:10p   59.9   60.1   59.9    93   57.9   3.0   ENE   0.50   7.0   ENE   59.9   60.3   60.3   57.8  29.946  0.00  0.00     0     0.00      0     0.0  0.00   0.0   0.035   0.000   69.2    65   56.9   69.1  11.87  .0739    0.000   209    5    100.0   10 
 8/13/18 11:20p   59.9   60.0   59.9    93   57.9   3.0   ENE   0.50   7.0     E   59.9   60.3   60.3   57.8  29.945  0.00  0.00     0     0.00      0     0.0  0.00   0.0   0.035   0.000   69.2    65   56.9   69.1  11.87  .0739    0.000   212    5    100.0   10 
 8/13/18 11:30p   59.7   59.9   59.7    93   57.7   3.0   ENE   0.50   7.0   ENE   59.7   60.0   60.0   57.5  29.945  0.00  0.00     0     0.00      0     0.0  0.00   0.0   0.037   0.000   69.1    65   56.8   69.0  11.87  .0739    0.000   212    5    100.0   10 
 8/13/18 11:40p   59.8   59.8   59.7    94   58.1   3.0   ENE   0.50   7.0   ENE   59.8   60.2   60.2   57.8  29.945  0.00  0.00     0     0.00      0     0.0  0.00   0.0   0.036   0.000   69.1    65   56.8   69.0  11.87  .0739    0.000   213    5    100.0   10 
 8/13/18 11:50p   59.8   59.8   59.7    94   58.1   3.0   ENE   0.50   7.0   ENE   59.8   60.2   60.2   57.8  29.942  0.00  0.00     0     0.00      0     0.0  0.00   0.0   0.036   0.000   69.3    65   57.0   69.1  11.86  .0739    0.000   213    5    100.0   10 
 8/14/18 12:00a   59.6   59.8   59.6    94   57.9   5.0   ENE   0.83  10.0   ENE   59.5   60.0   59.9   57.4  29.947  0.00  0.00     0     0.00      0     0.0  0.00   0.0   0.038   0.000   69.2    65   56.9   69.1  11.87  .0739    0.000   211    5    100.0   10 
 8/14/18 12:10a   59.3   59.6   59.3    94   57.6   3.0   ENE   0.50   7.0     E   59.3   59.7   59.7   57.2  29.948  0.00  0.00     0     0.00      0     0.0  0.00   0.0   0.040   0.000   69.0    65   56.7   68.9  11.87  .0740    0.000   211    5    100.0   10 
 8/14/18 12:20a   59.0   59.3   59.0    94   57.3   3.0   ENE   0.50   7.0     E   59.0   59.4   59.4   56.9  29.947  0.00  0.00     0     0.00      0     0.0  0.00   0.0   0.042   0.000   69.1    65   56.8   69.0  11.87  .0740    0.000   214    5    100.0   10 
 8/14/18 12:30a   58.8   59.1   58.8    94   57.1   3.0    NE   0.50   6.0     E   58.8   59.1   59.1   56.6  29.946  0.00  0.00     0     0.00      0     0.0  0.00   0.0   0.043   0.000   69.0    65   56.7   68.9  11.87  .0740    0.000   213    5    100.0   10 
 8/14/18 12:40a   58.6   58.8   58.6    94   56.9   3.0   ENE   0.50   5.0   ENE   58.6   58.9   58.9   56.4  29.945  0.00  0.00     0     0.00      0     0.0  0.00   0.0   0.044   0.000   69.1    65   56.8   69.0  11.87  .0739    0.000   213    5    100.0   10 
 8/14/18 12:50a   58.5   58.6   58.5    94   56.8   3.0    NE   0.50   8.0   NNE   58.5   58.8   58.8   56.3  29.947  0.00  0.00     0     0.00      0     0.0  0.00   0.0   0.045   0.000   69.1    64   56.4   68.9  11.67  .0740    0.000   213    5    100.0   10 
 8/14/18  1:00a   58.3   58.5   58.3    94   56.6   3.0   ENE   0.50   5.0    NE   58.3   58.6   58.6   56.1  29.946  0.00  0.00     0     0.00      0     0.0  0.00   0.0   0.047   0.000   69.2    64   56.5   69.0  11.67  .0739    0.000   212    5    100.0   10 
 8/14/18  1:10a   58.1   58.3   58.1    94   56.4   3.0   ENE   0.50   6.0    NE   58.1   58.4   58.4   55.9  29.944  0.00  0.00     0     0.00      0     0.0  0.00   0.0   0.048   0.000   69.1    64   56.4   68.9  11.67  .0740    0.000   210    5    100.0   10 
 8/14/18  1:20a   58.1   58.1   58.0    94   56.4   2.0    NE   0.33   4.0   ENE   58.1   58.4   58.4   55.9  29.946  0.00  0.00     0     0.00      0     0.0  0.00   0.0   0.048   0.000   69.3    64   56.6   69.0  11.66  .0739    0.000   209    5    100.0   10 
 8/14/18  1:30a   58.0   58.2   58.0    94   56.3   2.0    NE   0.33   3.0   ENE   58.0   58.3   58.3   55.8  29.946  0.00  0.00     0     0.00      0     0.0  0.00   0.0   0.049   0.000   69.4    64   56.7   69.1  11.66  .0739    0.000   213    5    100.0   10 
 8/14/18  1:40a   57.8   58.0   57.8    95   56.4   1.0     E   0.17   3.0     E   57.8   58.1   58.1   55.6  29.945  0.00  0.00     0     0.00      0     0.0  0.00   0.0   0.050   0.000   69.5    64   56.8   69.2  11.66  .0739    0.000   212    5    100.0   10 
 8/14/18  1:50a   58.0   58.0   57.8    95   56.6   0.0     E   0.00   2.0     E   58.0   58.3   58.3   55.8  29.943  0.00  0.00     0     0.00      0     0.0  0.00   0.0   0.049   0.000   69.6    64   56.9   69.3  11.66  .0739    0.000   213    5    100.0   10 
 8/14/18  2:00a   58.0   58.2   58.0    94   56.3   1.0    NE   0.17   2.0     E   58.0   58.3   58.3   55.8  29.943  0.00  0.00     0     0.00      0     0.0  0.00   0.0   0.049   0.000   69.7    64   57.0   69.4  11.66  .0739    0.000   212    5    100.0   10 
 8/14/18  2:10a   57.9   58.0   57.8    95   56.5   2.0    NE   0.33   3.0    NE   57.9   58.2   58.2   55.7  29.943  0.00  0.00     0     0.00      0     0.0  0.00   0.0   0.049   0.000   69.8    64   57.1   69.4  11.65  .0738    0.000   212    5    100.0   10 
 8/14/18  2:20a   58.1   58.1   57.9    95   56.7   1.0    NE   0.17   2.0    NE   58.1   58.4   58.4   55.9  29.943  0.00  0.00     0     0.00      0     0.0  0.00   0.0   0.048   0.000   69.9    63   56.7   69.4  11.55  .0738    0.000   213    5    100.0   10 
 8/14/18  2:30a   58.0   58.2   58.0    94   56.3   0.0    NE   0.00   1.0    NE   58.0   58.3   58.3   55.8  29.945  0.00  0.00     0     0.00      0     0.0  0.00   0.0   0.049   0.000   70.0    63   56.8   69.5  11.55  .0738    0.000   211    5    100.0   10 
 8/14/18  2:40a   57.7   58.0   57.7    95   56.3   0.0    NE   0.00   1.0    NE   57.7   58.0   58.0   55.5  29.946  0.00  0.00     0     0.00      0     0.0  0.00   0.0   0.051   0.000   70.0    63   56.8   69.5  11.55  .0738    0.000   214    5    100.0   10 
 8/14/18  2:50a   57.8   57.8   57.7    95   56.4   0.0    NE   0.00   2.0    NE   57.8   58.1   58.1   55.6  29.944  0.00  0.00     0     0.00      0     0.0  0.00   0.0   0.050   0.000   70.1    63   56.9   69.6  11.55  .0738    0.000   209    5    100.0   10 
 8/14/18  3:00a   57.7   57.8   57.7    95   56.3   0.0    NE   0.00   1.0    NE   57.7   58.0   58.0   55.5  29.944  0.00  0.00     0     0.00      0     0.0  0.00   0.0   0.051   0.000   70.1    63   56.9   69.6  11.55  .0738    0.000   209    5    100.0   10 
 8/14/18  3:10a   57.5   57.7   57.5    95   56.1   0.0    NE   0.00   1.0    NE   57.5   57.8   57.8   55.3  29.939  0.00  0.00     0     0.00      0     0.0  0.00   0.0   0.052   0.000   70.2    63   57.0   69.7  11.55  .0738    0.000   214    5    100.0   10 
 8/14/18  3:20a   57.4   57.5   57.4    95   56.0   0.0    NE   0.00   1.0    NE   57.4   57.6   57.6   55.0  29.939  0.00  0.00     0     0.00      0     0.0  0.00   0.0   0.053   0.000   70.3    63   57.1   69.9  11.54  .0738    0.000   210    5    100.0   10 
 8/14/18  3:30a   57.4   57.5   57.3    95   56.0   1.0    SE   0.17   2.0   ENE   57.4   57.6   57.6   55.0  29.938  0.00  0.00     0     0.00      0     0.0  0.00   0.0   0.053   0.000   70.3    63   57.1   69.9  11.54  .0737    0.000   213    5    100.0   10 
 8/14/18  3:40a   56.9   57.4   56.9    95   55.5   1.0    SE   0.17   4.0   SSE   56.9   57.1   57.1   54.5  29.940  0.00  0.00     0     0.00      0     0.0  0.00   0.0   0.056   0.000   70.3    63   57.1   69.9  11.54  .0738    0.000   213    5    100.0   10 
 8/14/18  3:50a   56.3   56.9   56.2    95   54.9   1.0     S   0.17   3.0   SSE   56.3   56.5   56.5   53.9  29.938  0.00  0.00     0     0.00      0     0.0  0.00   0.0   0.060   0.000   70.4    63   57.2   70.0  11.54  .0737    0.000   212    5    100.0   10 
 8/14/18  4:00a   56.3   56.4   56.1    95   54.9   1.0     S   0.17   2.0     S   56.3   56.5   56.5   53.9  29.937  0.00  0.00     0     0.00      0     0.0  0.00   0.0   0.060   0.000   70.4    63   57.2   70.0  11.54  .0737    0.000   210    5    100.0   10 
 8/14/18  4:10a   56.1   56.3   55.9    96   55.0   1.0     S   0.17   2.0     S   56.1   56.3   56.3   53.7  29.937  0.00  0.00     0     0.00      0     0.0  0.00   0.0   0.062   0.000   70.4    63   57.2   70.0  11.54  .0737    0.000   211    5    100.0   10 
 8/14/18  4:20a   55.9   56.1   55.5    96   54.8   2.0     S   0.33   5.0   SSW   55.9   56.1   56.1   53.5  29.936  0.00  0.00     0     0.00      0     0.0  0.00   0.0   0.063   0.000   70.4    62   56.8   69.9  11.34  .0737    0.000   211    5    100.0   10 
 8/14/18  4:30a   55.4   56.1   55.4    95   54.0   2.0     S   0.33   3.0   WSW   55.4   55.6   55.6   52.9  29.938  0.00  0.00     0     0.00      0     0.0  0.00   0.0   0.067   0.000   70.4    62   56.8   69.9  11.34  .0737    0.000   210    5    100.0   10 
 8/14/18  4:40a   54.9   55.3   54.9    95   53.5   0.0     S   0.00   2.0     S   54.9   55.1   55.1   52.4  29.935  0.00  0.00     0     0.00      0     0.0  0.00   0.0   0.070   0.000   70.5    62   56.9   70.0  11.34  .0737    0.000   214    5    100.0   10 
 8/14/18  4:50a   55.6   55.6   54.7    96   54.5   0.0     S   0.00   1.0     S   55.6   55.8   55.8   53.2  29.930  0.00  0.00     0     0.00      0     0.0  0.00   0.0   0.065   0.000   70.5    62   56.9   70.0  11.34  .0737    0.000   213    5    100.0   10 
 8/14/18  5:00a   56.2   56.2   55.7    96   55.1   0.0     S   0.00   1.0     S   56.2   56.4   56.4   53.8  29.929  0.00  0.00     0     0.00      0     0.0  0.00   0.0   0.061   0.000   70.5    62   56.9   70.0  11.34  .0737    0.000   211    5    100.0   10 
 8/14/18  5:10a   56.1   56.5   56.1    95   54.7   1.0     S   0.17   3.0     S   56.1   56.3   56.3   53.7  29.931  0.00  0.00     0     0.00      0     0.0  0.00   0.0   0.062   0.000   70.5    62   56.9   70.0  11.34  .0737    0.000   213    5    100.0   10 
 8/14/18  5:20a   55.8   56.1   55.8    96   54.7   1.0     S   0.17   2.0     S   55.8   56.0   56.0   53.4  29.932  0.00  0.00     0     0.00      0     0.0  0.00   0.0   0.064   0.000   70.5    62   56.9   70.0  11.34  .0737    0.000   213    5    100.0   10 
 8/14/18  5:30a   56.1   56.1   55.7    96   55.0   1.0     S   0.17   2.0     S   56.1   56.3   56.3   53.7  29.929  0.00  0.00     0     0.00      0     0.0  0.00   0.0   0.062   0.000   70.5    62   56.9   70.0  11.34  .0737    0.000   213    5    100.0   10 
 8/14/18  5:40a   56.4   56.4   56.2    96   55.3   0.0     S   0.00   1.0     S   56.4   56.6   56.6   54.0  29.928  0.00  0.00     0     0.00      0     0.0  0.00   0.0   0.060   0.000   70.5    62   56.9   70.0  11.34  .0737    0.000   210    5    100.0   10 
 8/14/18  5:50a   55.7   56.4   55.7    95   54.3   0.0     S   0.00   1.0     S   55.7   55.9   55.9   53.3  29.925  0.00  0.00     0     0.00      0     0.0  0.00   0.0   0.065   0.000   70.5    62   56.9   70.0  11.34  .0737    0.000   212    5    100.0   10 
 8/14/18  6:00a   56.2   56.2   55.6    96   55.1   1.0     S   0.17   2.0     S   56.2   56.4   56.4   53.8  29.925  0.00  0.00     0     0.00      0     0.0  0.00   0.0   0.061   0.000   70.5    61   56.4   69.9  11.23  .0737    0.000   212    5    100.0   10 
 8/14/18  6:10a   56.0   56.2   56.0    96   54.9   0.0     S   0.00   2.0     S   56.0   56.2   56.2   53.6  29.926  0.00  0.00     0     0.00      0     0.0  0.00   0.0   0.063   0.000   70.5    61   56.4   69.9  11.23  .0737    0.000   211    5    100.0   10 
 8/14/18  6:20a   55.6   55.9   55.5    96   54.5   1.0     S   0.17   3.0   SSE   55.6   55.8   55.8   53.2  29.930  0.00  0.00     0     0.00      0     0.0  0.00   0.0   0.065   0.000   70.5    61   56.4   69.9  11.23  .0737    0.000   212    5    100.0   10 
 8/14/18  6:30a   55.8   55.8   55.6    96   54.7   1.0     S   0.17   3.0     S   55.8   56.0   56.0   53.4  29.933  0.00  0.00     0     0.00      5     0.0  0.00   0.0   0.064   0.000   70.5    61   56.4   69.9  11.23  .0737    0.000   210    5    100.0   10 
 8/14/18  6:40a   56.0   56.0   55.8    96   54.9   1.0     S   0.17   3.0     S   56.0   56.2   56.2   53.8  29.934  0.00  0.00     7     0.10      9     0.0  0.00   0.0   0.063   0.000   70.5    61   56.4   69.9  11.23  .0737    0.000   213    5    100.0   10 
 8/14/18  6:50a   55.6   56.1   55.6    95   54.2   0.0     S   0.00   1.0     S   55.6   55.8   55.8   53.5  29.936  0.00  0.00    13     0.19     16     0.0  0.00   0.0   0.065   0.000   70.5    61   56.4   69.9  11.23  .0737    0.000   211    5    100.0   10 
 8/14/18  7:00a   55.7   55.9   55.6    96   54.6   1.0     S   0.17   2.0     S   55.7   55.9   55.9   55.0  29.936  0.00  0.00    20     0.29     25     0.0  0.00   0.0   0.065   0.000   70.5    61   56.4   69.9  11.23  .0737    0.000   212    5    100.0   10 
 8/14/18  7:10a   55.8   55.9   55.7    96   54.7   1.0     S   0.17   3.0     S   55.8   56.0   56.0   55.5  29.933  0.00  0.00    29     0.42     35     0.0  0.00   0.0   0.064   0.000   70.6    61   56.5   70.1  11.23  .0737    0.000   209    5    100.0   10 
 8/14/18  7:20a   56.2   56.2   55.8    96   55.1   1.0     S   0.17   3.0     S   56.2   56.4   56.4   56.6  29.934  0.00  0.00    43     0.62     47     0.0  0.00   0.0   0.061   0.000   70.8    61   56.7   70.3  11.22  .0737    0.000   211    5    100.0   10 
 8/14/18  7:30a   56.5   56.5   56.2    96   55.4   2.0     S   0.33   5.0     S   56.5   56.7   56.7   57.4  29.935  0.00  0.00    56     0.80     65     0.0  0.00   0.0   0.059   0.000   70.9    61   56.8   70.5  11.21  .0737    0.000   212    5    100.0   10 
 8/14/18  7:40a   56.2   56.5   56.1    96   55.1   3.0     S   0.50   5.0   SSW   56.2   56.4   56.4   57.8  29.935  0.00  0.00    75     1.08     86     0.0  0.00   0.0   0.061   0.000   71.0    61   56.9   70.6  11.21  .0737    0.000   213    5    100.0   10 
 8/14/18  7:50a   56.4   56.6   56.2    96   55.3   4.0   SSW   0.67   6.0   SSW   56.3   56.6   56.5   58.4  29.938  0.00  0.00    90     1.29     93     0.0  0.00   0.0   0.060   0.000   71.0    61   56.9   70.6  11.21  .0737    0.000   212    5    100.0   10 
 8/14/18  8:00a   56.2   56.4   55.9    96   55.1   3.0   SSW   0.50   5.0   SSW   56.2   56.4   56.4   58.3  29.940  0.00  0.00    94     1.35    104     0.0  0.00   0.0   0.061   0.000   71.1    61   57.0   70.7  11.21  .0736    0.001   213    5    100.0   10 
 8/14/18  8:10a   56.4   56.4   56.1    96   55.3   4.0   SSW   0.67   7.0   SSW   56.3   56.6   56.5   58.5  29.943  0.00  0.00    98     1.40    104     0.0  0.00   0.0   0.060   0.000   71.2    61   57.1   70.9  11.20  .0736    0.000   213    5    100.0   10 
 8/14/18  8:20a   56.9   56.9   56.4    97   56.1   5.0   SSW   0.83   9.0   SSW   56.3   57.2   56.6   58.7  29.945  0.00  0.00   104     1.49    109     0.0  0.00   0.0   0.056   0.000   71.2    61   57.1   70.9  11.20  .0736    0.000   210    5    100.0   10 
 8/14/18  8:30a   56.8   56.9   56.8    96   55.7   4.0   SSW   0.67   6.0   SSW   56.8   57.0   57.0   59.1  29.946  0.00  0.00   108     1.55    130     0.0  0.00   0.0   0.057   0.000   71.3    61   57.2   71.0  11.20  .0736    0.000   208    5    100.0   10 
 8/14/18  8:40a   56.6   56.8   56.4    96   55.5   4.0   SSW   0.67   7.0   SSW   56.5   56.8   56.7   59.4  29.944  0.00  0.00   133     1.91    146     0.0  0.00   0.0   0.058   0.000   71.3    61   57.2   71.0  11.20  .0736    0.000   211    5    100.0   10 
 8/14/18  8:50a   56.6   56.7   56.6    96   55.5   5.0   SSW   0.83   7.0   SSW   56.0   56.8   56.2   59.2  29.941  0.00  0.00   146     2.09    174     0.0  0.00   0.0   0.058   0.000   71.4    61   57.2   71.1  11.19  .0736    0.000   213    5    100.0   10 
 8/14/18  9:00a   56.9   56.9   56.6    96   55.8   3.0   SSW   0.50   7.0   SSW   56.9   57.1   57.1   61.3  29.941  0.00  0.00   193     2.77    207     0.0  0.00   0.0   0.056   0.000   71.4    61   57.2   71.1  11.19  .0736    0.003   210    5    100.0   10 
 8/14/18  9:10a   57.3   57.3   56.9    96   56.2   3.0   SSW   0.50   6.0   SSW   57.3   57.6   57.6   62.4  29.940  0.00  0.00   216     3.10    230     0.0  0.00   0.0   0.053   0.000   71.5    61   57.3   71.3  11.19  .0736    0.000   213    5    100.0   10 
 8/14/18  9:20a   57.6   57.6   57.3    97   56.8   3.0   SSW   0.50   5.0   SSW   57.6   57.9   57.9   63.3  29.938  0.00  0.00   244     3.50    258     0.0  0.00   0.0   0.051   0.000   71.7    61   57.5   71.6  11.18  .0735    0.000   208    5    100.0   10 
 8/14/18  9:30a   57.6   57.7   57.6    96   56.5   2.0     S   0.33   4.0   SSW   57.6   57.9   57.9   63.6  29.938  0.00  0.00   263     3.77    288     0.0  0.00   0.0   0.051   0.000   71.7    61   57.5   71.6  11.18  .0735    0.000   213    5    100.0   10 
 8/14/18  9:40a   57.4   57.6   57.4    96   56.3   2.0     S   0.33   3.0     S   57.4   57.7   57.7   63.6  29.938  0.00  0.00   279     4.00    294     0.0  0.00   0.0   0.053   0.000   71.8    61   57.6   71.7  11.18  .0735    0.000   212    5    100.0   10 
 8/14/18  9:50a   57.8   57.9   57.4    96   56.7   1.0     S   0.17   2.0     S   57.8   58.1   58.1   64.2  29.936  0.00  0.00   292     4.19    295     0.0  0.00   0.0   0.050   0.000   71.9    61   57.7   71.8  11.17  .0735    0.000   212    5    100.0   10 
 8/14/18 10:00a   57.9   58.0   57.8    96   56.8   1.0     S   0.17   3.0     S   57.9   58.2   58.2   64.3  29.936  0.00  0.00   302     4.33    350     0.0  0.00   0.0   0.049   0.000   72.0    61   57.8   72.0  11.17  .0735    0.005   212    5    100.0   10 
 8/14/18 10:10a   57.8   58.0   57.8    96   56.7   1.0     S   0.17   2.0     S   57.8   58.1   58.1   65.2  29.935  0.00  0.00   353     5.06    359     0.0  0.00   0.0   0.050   0.000   72.2    61   58.0   72.3  11.16  .0734    0.000   211    5    100.0   10 
 8/14/18 10:20a   58.5   58.5   57.7    96   57.4   1.0     S   0.17   3.0     S   58.5   58.9   58.9   68.2  29.934  0.00  0.00   484     6.94    566     0.0  0.00   0.0   0.045   0.000   72.3    60   57.6   72.4  11.00  .0734    0.000   210    5    100.0   10 
 8/14/18 10:30a   58.7   58.7   58.6    96   57.6   1.0     S   0.17   3.0     S   58.7   59.1   59.1   68.9  29.932  0.00  0.00   524     7.51    582     0.0  0.00   0.0   0.044   0.000   72.5    60   57.8   72.7  11.00  .0734    0.000   212    5    100.0   10 
 8/14/18 10:40a   59.2   59.2   58.7    96   58.1   1.0   SSW   0.17   3.0   SSW   59.2   59.6   59.6   69.9  29.931  0.00  0.00   572     8.20    613     0.0  0.00   0.0   0.040   0.000   72.7    60   58.0   72.9  11.00  .0734    0.000   213    5    100.0   10 
 8/14/18 10:50a   60.1   60.1   59.2    96   59.0   1.0   SSW   0.17   3.0   SSE   60.1   60.5   60.5   68.5  29.930  0.00  0.00   421     6.04    513     0.0  0.00   0.0   0.034   0.000   72.9    60   58.2   73.3  10.99  .0733    0.000   213    5    100.0   10 
 8/14/18 11:00a   60.4   60.4   60.0    96   59.3   1.0     S   0.17   2.0     S   60.4   60.9   60.9   68.6  29.931  0.00  0.00   407     5.83    492     0.0  0.00   0.0   0.032   0.000   73.0    60   58.3   73.4  10.99  .0733    0.009   213    5    100.0   10 
 8/14/18 11:10a   60.8   60.8   60.4    95   59.4   1.0     S   0.17   2.0     S   60.8   61.3   61.3   69.8  29.930  0.00  0.00   460     6.59    557     0.0  0.00   0.0   0.029   0.000   73.1    60   58.4   73.5  10.99  .0733    0.000   212    5    100.0   10 
 8/14/18 11:20a   60.9   60.9   60.8    95   59.5   1.0   SSW   0.17   2.0     S   60.9   61.4   61.4   70.0  29.928  0.00  0.00   468     6.71    513     0.0  0.00   0.0   0.028   0.000   73.2    60   58.5   73.7  10.99  .0733    0.000   211    5    100.0   10 
 8/14/18 11:30a   61.0   61.2   60.9    95   59.6   1.0   SSW   0.17   3.0    SW   61.0   61.5   61.5   70.0  29.931  0.00  0.00   466     6.68    575     0.0  0.00   0.0   0.028   0.000   73.3    60   58.6   73.8  10.98  .0733    0.000   213    5    100.0   10 
 8/14/18 11:40a   61.0   61.1   60.9    95   59.6   1.0   WSW   0.17   2.0   WSW   61.0   61.5   61.5   70.6  29.930  0.00  0.00   504     7.22    605     0.0  0.00   0.0   0.028   0.000   73.3    60   58.6   73.8  10.98  .0733    0.000   209    5    100.0   10 
 8/14/18 11:50a   61.0   61.0   60.7    95   59.6   1.0   SSW   0.17   3.0   SSW   61.0   61.5   61.5   71.5  29.931  0.00  0.00   575     8.24    633     0.0  0.00   0.0   0.028   0.000   73.5    60   58.8   74.1  10.98  .0732    0.000   212    5    100.0   10 
 8/14/18 12:00p   61.3   61.3   61.0    94   59.6   2.0   SSW   0.33   3.0   SSW   61.3   61.8   61.8   72.3  29.933  0.00  0.00   618     8.86    680     0.0  0.00   0.0   0.026   0.000   73.5    60   58.8   74.1  10.98  .0732    0.011   211    5    100.0   10 
 8/14/18 12:10p   62.2   62.4   61.4    94   60.5   2.0     W   0.33   3.0     W   62.2   62.9   62.9   72.9  29.933  0.00  0.00   575     8.24    657     0.0  0.00   0.0   0.019   0.000   73.6    60   58.9   74.2  10.98  .0732    0.000   211    5    100.0   10 
 8/14/18 12:20p   61.5   62.2   61.5    94   59.8   2.0   WSW   0.33   3.0     W   61.5   62.1   62.1   70.7  29.931  0.00  0.00   476     6.82    510     0.0  0.00   0.0   0.024   0.000   73.7    60   58.9   74.3  10.98  .0732    0.000   212    5    100.0   10 
 8/14/18 12:30p   61.7   61.8   61.4    94   60.0   2.0     W   0.33   3.0     W   61.7   62.3   62.3   72.4  29.928  0.00  0.00   587     8.41    654     0.0  0.00   0.0   0.023   0.000   73.8    60   59.0   74.4  10.97  .0732    0.000   214    5    100.0   10 
 8/14/18 12:40p   62.2   62.2   61.7    94   60.5   2.0     W   0.33   3.0   WNW   62.2   62.9   62.9   73.4  29.925  0.00  0.00   614     8.80    684     0.0  0.00   0.0   0.019   0.000   73.9    60   59.1   74.6  10.97  .0731    0.000   210    5    100.0   10 
 8/14/18 12:50p   62.8   62.8   62.2    94   61.0   1.0   WSW   0.17   2.0     W   62.8   63.6   63.6   73.8  29.924  0.00  0.00   587     8.41    635     0.0  0.00   0.0   0.015   0.000   73.9    60   59.1   74.6  10.97  .0731    0.000   211    5    100.0   10 
 8/14/18  1:00p   63.0   63.0   62.8    93   60.9   1.0    SW   0.17   2.0   WSW   63.0   63.8   63.8   73.7  29.923  0.00  0.00   566     8.11    673     0.0  0.00   0.0   0.014   0.000   74.1    60   59.3   74.8  10.97  .0731    0.012   212    5    100.0   10 
 8/14/18  1:10p   59.6   63.0   59.6    92   57.3   3.0    SW   0.50   5.0   SSE   59.6   59.9   59.9   69.5  29.924  0.00  0.00   558     8.00    599     0.0  0.00   0.0   0.038   0.000   74.0    60   59.2   74.7  10.97  .0731    0.000   213    5    100.0   10 
 8/14/18  1:20p   58.5   59.5   58.5    93   56.5   3.0     S   0.50   5.0   SSW   58.5   58.8   58.8   67.2  29.923  0.00  0.00   475     6.81    578     0.0  0.00   0.0   0.045   0.000   73.9    60   59.1   74.6  10.97  .0731    0.000   209    5    100.0   10 
 8/14/18  1:30p   57.3   58.4   57.3    93   55.3   4.0   SSW   0.67   6.0    SW   57.3   57.5   57.5   64.2  29.925  0.00  0.00   376     5.39    432     0.0  0.00   0.0   0.053   0.000   73.3    59   58.1   73.7  10.82  .0733    0.000   210    5    100.0   10 
 8/14/18  1:40p   57.2   57.3   56.9    94   55.5   4.0   SSW   0.67   6.0   SSW   57.2   57.4   57.4   64.5  29.925  0.00  0.00   399     5.72    425     0.0  0.00   0.0   0.054   0.000   72.7    59   57.5   72.9  10.84  .0734    0.000   213    5    100.0   10 
 8/14/18  1:50p   56.7   57.2   56.7    94   55.0   4.0   SSW   0.67   7.0   SSW   56.6   56.9   56.8   64.2  29.922  0.00  0.00   420     6.02    483     0.0  0.00   0.0   0.058   0.000   72.4    59   57.3   72.4  10.85  .0734    0.000   213    5    100.0   10 
 8/14/18  2:00p   56.7   56.9   56.7    94   55.0   5.0   SSW   0.83   6.0     S   56.1   56.9   56.3   64.5  29.919  0.00  0.00   468     6.71    517     0.0  0.00   0.0   0.058   0.000   72.0    59   56.9   71.8  10.87  .0735    0.009   212    5    100.0   10 
 8/14/18  2:10p   56.4   56.7   56.4    95   55.0   5.0   SSW   0.83   7.0   SSW   55.7   56.6   55.9   62.9  29.917  0.00  0.00   394     5.65    432     0.0  0.00   0.0   0.060   0.000   71.6    60   57.0   71.3  11.02  .0735    0.000   213    5    100.0   10 
 8/14/18  2:20p   56.3   56.4   56.2    95   54.9   5.0   SSW   0.83   7.0     S   55.6   56.5   55.8   62.3  29.915  0.00  0.00   368     5.28    392     0.0  0.00   0.0   0.060   0.000   71.4    60   56.8   71.1  11.02  .0736    0.000   211    5    100.0   10 
 8/14/18  2:30p   56.3   56.3   56.1    95   54.9   5.0   SSW   0.83   8.0   SSE   55.6   56.5   55.8   63.4  29.915  0.00  0.00   427     6.12    448     0.0  0.00   0.0   0.060   0.000   71.3    60   56.7   70.9  11.02  .0736    0.000   213    5    100.0   10 
 8/14/18  2:40p   56.7   56.8   56.2    96   55.6   4.0   SSW   0.67   7.0   SSW   56.6   56.9   56.8   65.0  29.915  0.00  0.00   461     6.61    527     0.0  0.00   0.0   0.058   0.000   71.2    60   56.6   70.8  11.03  .0736    0.000   213    5    100.0   10 
 8/14/18  2:50p   56.2   56.8   56.2    95   54.8   5.0   SSW   0.83   7.0   SSW   55.5   56.4   55.7   62.2  29.911  0.00  0.00   362     5.19    373     0.0  0.00   0.0   0.061   0.000   71.1    60   56.5   70.6  11.03  .0736    0.000   212    5    100.0   10 
 8/14/18  3:00p   56.1   56.3   56.1    96   55.0   5.0   SSW   0.83   7.0   SSW   55.4   56.3   55.6   62.0  29.913  0.00  0.00   355     5.09    392     0.0  0.00   0.0   0.062   0.000   71.2    60   56.6   70.8  11.03  .0736    0.008   213    5    100.0   10 
 8/14/18  3:10p   56.0   56.1   56.0    96   54.9   5.0   SSW   0.83   7.0   SSW   55.3   56.2   55.5   61.8  29.911  0.00  0.00   351     5.03    387     0.0  0.00   0.0   0.063   0.000   71.3    60   56.7   70.9  11.02  .0736    0.000   212    5    100.0   10 
 8/14/18  3:20p   56.0   56.2   56.0    96   54.9   6.0   SSW   1.00   8.0   SSW   54.8   56.2   55.0   61.1  29.912  0.00  0.00   333     4.77    371     0.0  0.00   0.0   0.063   0.000   71.2    60   56.6   70.8  11.03  .0736    0.000   212    5    100.0   10 
 8/14/18  3:30p   56.2   56.2   56.0    96   55.1   6.0   SSW   1.00  10.0   SSE   55.0   56.4   55.2   61.0  29.911  0.00  0.00   316     4.53    338     0.0  0.00   0.0   0.061   0.000   71.2    60   56.6   70.8  11.03  .0736    0.000   211    5    100.0   10 
 8/14/18  3:40p   56.2   56.6   56.2    96   55.1   6.0   SSW   1.00   9.0   SSW   55.0   56.4   55.2   60.9  29.908  0.00  0.00   306     4.39    320     0.0  0.00   0.0   0.061   0.000   71.2    60   56.6   70.8  11.03  .0736    0.000   210    5    100.0   10 
 8/14/18  3:50p   56.6   56.7   56.2    96   55.5   7.0   SSW   1.17  10.0     S   55.1   56.8   55.3   61.0  29.909  0.00  0.00   310     4.44    343     0.0  0.00   0.0   0.058   0.000   71.0    60   56.4   70.5  11.03  .0736    0.000   209    5    100.0   10 
 8/14/18  4:00p   56.6   56.6   56.4    96   55.5   8.0   SSW   1.33  11.0     S   54.4   56.8   54.6   60.0  29.906  0.00  0.00   303     4.34    316     0.0  0.00   0.0   0.058   0.000   71.0    60   56.4   70.5  11.03  .0736    0.006   211    5    100.0   10 
 8/14/18  4:10p   56.7   56.7   56.4    97   55.9   8.0   SSW   1.33  12.0     S   54.5   57.0   54.8   60.3  29.904  0.00  0.00   302     4.33    323     0.0  0.00   0.0   0.058   0.000   71.0    60   56.4   70.5  11.03  .0736    0.000   211    5    100.0   10 
 8/14/18  4:20p   56.7   56.7   56.6    97   55.9   8.0   SSW   1.33  12.0   SSE   54.5   57.0   54.8   60.2  29.899  0.00  0.00   290     4.16    306     0.0  0.00   0.0   0.058   0.000   70.9    60   56.3   70.4  11.03  .0736    0.000   212    5    100.0   10 
 8/14/18  4:30p   56.6   56.9   56.6    96   55.5   9.0   SSW   1.50  12.0   SSW   53.7   56.8   53.9   58.8  29.900  0.00  0.00   272     3.90    288     0.0  0.00   0.0   0.058   0.000   70.7    60   56.1   70.1  11.04  .0736    0.000   212    5    100.0   10 
 8/14/18  4:40p   56.8   56.8   56.6    97   56.0   8.0   SSW   1.33  12.0   SSW   54.7   57.1   55.0   59.8  29.898  0.00  0.00   252     3.61    260     0.0  0.00   0.0   0.057   0.000   70.7    60   56.1   70.1  11.04  .0736    0.000   210    5    100.0   10 
 8/14/18  4:50p   55.9   56.8   55.9    96   54.8   7.0   SSW   1.17  10.0     S   54.3   56.1   54.5   58.8  29.897  0.00  0.00   220     3.15    248     0.0  0.00   0.0   0.063   0.000   70.7    60   56.1   70.1  11.04  .0736    0.000   212    5    100.0   10 
 8/14/18  5:00p   56.3   56.3   55.9    97   55.5   8.0   SSW   1.33  11.0   SSW   54.1   56.6   54.4   58.0  29.899  0.00  0.00   193     2.77    206     0.0  0.00   0.0   0.060   0.000   70.9    60   56.3   70.4  11.03  .0736    0.005   213    5    100.0   10 
 8/14/18  5:10p   56.6   56.6   56.1    97   55.8   8.0   SSW   1.33  12.0   SSE   54.4   56.9   54.7   57.6  29.898  0.00  0.00   162     2.32    169     0.0  0.00   0.0   0.058   0.000   71.1    60   56.5   70.6  11.03  .0736    0.000   212    5    100.0   10 
 8/14/18  5:20p   57.1   57.1   56.6    97   56.3   7.0   SSW   1.17  11.0   SSE   55.7   57.4   56.0   59.1  29.896  0.00  0.00   156     2.24    162     0.0  0.00   0.0   0.055   0.000   71.3    60   56.7   70.9  11.02  .0735    0.000   211    5    100.0   10 
 8/14/18  5:30p   56.8   57.3   56.8    97   56.0   7.0   SSW   1.17  10.0     S   55.4   57.1   55.7   58.5  29.893  0.00  0.00   142     2.04    151     0.0  0.00   0.0   0.057   0.000   71.4    60   56.8   71.1  11.02  .0735    0.000   208    5    100.0   10 
 8/14/18  5:40p   57.2   57.2   56.4    97   56.4   7.0   SSW   1.17  10.0     S   55.8   57.5   56.1   58.7  29.895  0.00  0.00   129     1.85    142     0.0  0.00   0.0   0.054   0.000   71.5    60   56.9   71.2  11.02  .0735    0.000   213    5    100.0   10 
 8/14/18  5:50p   56.6   57.2   56.5    97   55.8   7.0   SSW   1.17  11.0   SSW   55.1   56.9   55.4   57.6  29.896  0.00  0.00   115     1.65    130     0.0  0.00   0.0   0.058   0.000   71.6    60   57.0   71.3  11.02  .0735    0.000   211    5    100.0   10 
 8/14/18  6:00p   57.3   57.3   56.4    98   56.7   8.0   SSW   1.33  12.0     S   55.3   57.6   55.6   57.3  29.895  0.00  0.00    99     1.42    105     0.0  0.00   0.0   0.053   0.000   71.7    60   57.1   71.5  11.02  .0734    0.003   209    5    100.0   10 
 8/14/18  6:10p   57.4   57.8   57.3    97   56.6   9.0   SSW   1.50  14.0   SSE   54.6   57.7   54.9   56.4  29.894  0.00  0.00    88     1.26     97     0.0  0.00   0.0   0.053   0.000   71.8    60   57.2   71.6  11.01  .0734    0.000   212    5    100.0   10 
Email: AdamSPAM@StormwatchersRetreat.com (To send me email remove the word 'SPAM' from my email address.)